sensor_id;sensor_type;location;lat;lon;timestamp;temperature;humidity
64549;DHT22;49838;51.798;10.954;2022-08-21T00:01:19;26.10;39.30
64549;DHT22;49838;51.798;10.954;2022-08-21T00:03:48;26.10;39.40
64549;DHT22;49838;51.798;10.954;2022-08-21T00:06:15;26.00;39.40
64549;DHT22;49838;51.798;10.954;2022-08-21T00:08:43;26.00;39.50
64549;DHT22;49838;51.798;10.954;2022-08-21T00:11:10;25.90;39.50
64549;DHT22;49838;51.798;10.954;2022-08-21T00:13:38;25.90;39.50
64549;DHT22;49838;51.798;10.954;2022-08-21T00:16:06;25.90;39.50
64549;DHT22;49838;51.798;10.954;2022-08-21T00:18:34;25.90;39.50
64549;DHT22;49838;51.798;10.954;2022-08-21T00:21:02;25.80;39.50
64549;DHT22;49838;51.798;10.954;2022-08-21T00:23:29;25.90;39.50
64549;DHT22;49838;51.798;10.954;2022-08-21T00:25:57;25.90;39.40
64549;DHT22;49838;51.798;10.954;2022-08-21T00:28:24;25.90;39.30
64549;DHT22;49838;51.798;10.954;2022-08-21T00:30:51;25.90;39.30
64549;DHT22;49838;51.798;10.954;2022-08-21T00:33:18;25.90;39.30
64549;DHT22;49838;51.798;10.954;2022-08-21T00:35:47;25.90;39.20
64549;DHT22;49838;51.798;10.954;2022-08-21T00:38:15;25.80;39.20
64549;DHT22;49838;51.798;10.954;2022-08-21T00:40:43;25.80;39.20
64549;DHT22;49838;51.798;10.954;2022-08-21T00:43:13;25.80;39.20
64549;DHT22;49838;51.798;10.954;2022-08-21T00:45:43;25.80;39.20
64549;DHT22;49838;51.798;10.954;2022-08-21T00:48:10;25.70;39.10
64549;DHT22;49838;51.798;10.954;2022-08-21T00:50:38;25.60;39.10
64549;DHT22;49838;51.798;10.954;2022-08-21T00:53:10;25.70;39.10
64549;DHT22;49838;51.798;10.954;2022-08-21T00:55:39;25.70;39.10
64549;DHT22;49838;51.798;10.954;2022-08-21T00:58:08;25.70;39.10
64549;DHT22;49838;51.798;10.954;2022-08-21T01:00:38;25.70;39.00
64549;DHT22;49838;51.798;10.954;2022-08-21T01:03:09;25.90;39.00
64549;DHT22;49838;51.798;10.954;2022-08-21T01:05:39;25.70;38.90
64549;DHT22;49838;51.798;10.954;2022-08-21T01:08:07;25.70;38.90
64549;DHT22;49838;51.798;10.954;2022-08-21T01:10:37;25.60;38.80
64549;DHT22;49838;51.798;10.954;2022-08-21T01:13:04;25.60;38.90
64549;DHT22;49838;51.798;10.954;2022-08-21T01:15:36;25.60;38.90
64549;DHT22;49838;51.798;10.954;2022-08-21T01:18:06;25.50;38.90
64549;DHT22;49838;51.798;10.954;2022-08-21T01:20:37;25.50;38.90
64549;DHT22;49838;51.798;10.954;2022-08-21T01:23:09;25.50;39.50
64549;DHT22;49838;51.798;10.954;2022-08-21T01:25:36;25.40;38.80
64549;DHT22;49838;51.798;10.954;2022-08-21T01:28:06;25.40;38.80
64549;DHT22;49838;51.798;10.954;2022-08-21T01:30:38;25.30;38.70
64549;DHT22;49838;51.798;10.954;2022-08-21T01:33:06;25.30;38.70
64549;DHT22;49838;51.798;10.954;2022-08-21T01:35:33;25.30;38.70
64549;DHT22;49838;51.798;10.954;2022-08-21T01:38:01;25.20;38.60
64549;DHT22;49838;51.798;10.954;2022-08-21T01:40:29;25.20;39.30
64549;DHT22;49838;51.798;10.954;2022-08-21T01:42:57;25.20;38.60
64549;DHT22;49838;51.798;10.954;2022-08-21T01:45:24;25.10;38.60
64549;DHT22;49838;51.798;10.954;2022-08-21T01:47:51;25.10;38.60
64549;DHT22;49838;51.798;10.954;2022-08-21T01:50:19;25.00;38.60
64549;DHT22;49838;51.798;10.954;2022-08-21T01:52:47;25.00;38.60
64549;DHT22;49838;51.798;10.954;2022-08-21T01:55:16;24.90;38.50
64549;DHT22;49838;51.798;10.954;2022-08-21T01:57:46;24.90;38.50
64549;DHT22;49838;51.798;10.954;2022-08-21T02:00:15;24.80;38.50
64549;DHT22;49838;51.798;10.954;2022-08-21T02:02:44;24.80;38.50
64549;DHT22;49838;51.798;10.954;2022-08-21T02:05:12;24.80;38.40
64549;DHT22;49838;51.798;10.954;2022-08-21T02:07:41;24.80;38.40
64549;DHT22;49838;51.798;10.954;2022-08-21T02:10:11;24.80;38.40
64549;DHT22;49838;51.798;10.954;2022-08-21T02:12:40;24.80;38.40
64549;DHT22;49838;51.798;10.954;2022-08-21T02:15:09;24.80;38.30
64549;DHT22;49838;51.798;10.954;2022-08-21T02:17:37;24.80;38.30
64549;DHT22;49838;51.798;10.954;2022-08-21T02:20:07;24.70;38.30
64549;DHT22;49838;51.798;10.954;2022-08-21T02:22:36;24.70;38.30
64549;DHT22;49838;51.798;10.954;2022-08-21T02:25:03;24.70;38.30
64549;DHT22;49838;51.798;10.954;2022-08-21T02:27:36;24.60;38.20
64549;DHT22;49838;51.798;10.954;2022-08-21T02:30:06;24.60;38.20
64549;DHT22;49838;51.798;10.954;2022-08-21T02:32:36;24.60;38.30
64549;DHT22;49838;51.798;10.954;2022-08-21T02:35:03;24.50;38.20
64549;DHT22;49838;51.798;10.954;2022-08-21T02:37:31;24.50;38.20
64549;DHT22;49838;51.798;10.954;2022-08-21T02:39:59;24.40;38.10
64549;DHT22;49838;51.798;10.954;2022-08-21T02:42:26;24.40;38.10
64549;DHT22;49838;51.798;10.954;2022-08-21T02:44:54;24.40;38.10
64549;DHT22;49838;51.798;10.954;2022-08-21T02:47:21;24.30;38.00
64549;DHT22;49838;51.798;10.954;2022-08-21T02:49:49;24.30;38.00
64549;DHT22;49838;51.798;10.954;2022-08-21T02:52:18;24.30;38.00
64549;DHT22;49838;51.798;10.954;2022-08-21T02:54:47;24.20;37.90
64549;DHT22;49838;51.798;10.954;2022-08-21T02:57:14;24.20;38.00
64549;DHT22;49838;51.798;10.954;2022-08-21T02:59:42;24.10;37.90
64549;DHT22;49838;51.798;10.954;2022-08-21T03:02:09;24.00;37.80
64549;DHT22;49838;51.798;10.954;2022-08-21T03:04:37;24.00;37.90
64549;DHT22;49838;51.798;10.954;2022-08-21T03:07:06;24.00;37.80
64549;DHT22;49838;51.798;10.954;2022-08-21T03:09:33;24.00;37.90
64549;DHT22;49838;51.798;10.954;2022-08-21T03:12:00;24.00;37.80
64549;DHT22;49838;51.798;10.954;2022-08-21T03:14:28;24.00;37.80
64549;DHT22;49838;51.798;10.954;2022-08-21T03:16:55;24.00;37.80
64549;DHT22;49838;51.798;10.954;2022-08-21T03:19:22;24.00;37.80
64549;DHT22;49838;51.798;10.954;2022-08-21T03:21:49;24.00;37.70
64549;DHT22;49838;51.798;10.954;2022-08-21T03:24:18;24.10;37.80
64549;DHT22;49838;51.798;10.954;2022-08-21T03:26:45;24.10;37.80
64549;DHT22;49838;51.798;10.954;2022-08-21T03:29:12;24.10;37.80
64549;DHT22;49838;51.798;10.954;2022-08-21T03:31:40;24.10;37.70
64549;DHT22;49838;51.798;10.954;2022-08-21T03:34:07;24.00;37.70
64549;DHT22;49838;51.798;10.954;2022-08-21T03:36:34;24.00;37.70
64549;DHT22;49838;51.798;10.954;2022-08-21T03:39:02;24.00;37.70
64549;DHT22;49838;51.798;10.954;2022-08-21T03:41:31;23.90;37.70
64549;DHT22;49838;51.798;10.954;2022-08-21T03:43:58;23.90;37.70
64549;DHT22;49838;51.798;10.954;2022-08-21T03:46:25;23.80;37.60
64549;DHT22;49838;51.798;10.954;2022-08-21T03:48:53;23.80;37.70
64549;DHT22;49838;51.798;10.954;2022-08-21T03:51:20;23.80;37.60
64549;DHT22;49838;51.798;10.954;2022-08-21T03:53:48;23.80;37.60
64549;DHT22;49838;51.798;10.954;2022-08-21T03:56:15;23.70;37.50
64549;DHT22;49838;51.798;10.954;2022-08-21T03:58:44;23.70;38.20
64549;DHT22;49838;51.798;10.954;2022-08-21T04:01:11;23.70;37.60
64549;DHT22;49838;51.798;10.954;2022-08-21T04:03:38;23.60;37.40
64549;DHT22;49838;51.798;10.954;2022-08-21T04:06:06;23.60;37.40
64549;DHT22;49838;51.798;10.954;2022-08-21T04:08:34;23.60;37.40
64549;DHT22;49838;51.798;10.954;2022-08-21T04:11:01;23.60;37.40
64549;DHT22;49838;51.798;10.954;2022-08-21T04:13:29;23.60;37.40
64549;DHT22;49838;51.798;10.954;2022-08-21T04:15:57;23.60;37.40
64549;DHT22;49838;51.798;10.954;2022-08-21T04:18:25;23.60;37.40
64549;DHT22;49838;51.798;10.954;2022-08-21T04:20:52;23.50;37.30
64549;DHT22;49838;51.798;10.954;2022-08-21T04:23:21;23.50;37.30
64549;DHT22;49838;51.798;10.954;2022-08-21T04:25:49;23.50;37.30
64549;DHT22;49838;51.798;10.954;2022-08-21T04:28:16;23.40;37.30
64549;DHT22;49838;51.798;10.954;2022-08-21T04:30:43;23.40;37.20
64549;DHT22;49838;51.798;10.954;2022-08-21T04:33:13;23.40;37.30
64549;DHT22;49838;51.798;10.954;2022-08-21T04:35:40;23.40;37.30
64549;DHT22;49838;51.798;10.954;2022-08-21T04:38:07;23.30;37.20
64549;DHT22;49838;51.798;10.954;2022-08-21T04:40:35;23.40;37.30
64549;DHT22;49838;51.798;10.954;2022-08-21T04:43:03;23.40;37.30
64549;DHT22;49838;51.798;10.954;2022-08-21T04:45:33;23.40;37.30
64549;DHT22;49838;51.798;10.954;2022-08-21T04:48:02;23.40;37.30
64549;DHT22;49838;51.798;10.954;2022-08-21T04:50:35;23.40;37.30
64549;DHT22;49838;51.798;10.954;2022-08-21T04:53:07;23.50;37.30
64549;DHT22;49838;51.798;10.954;2022-08-21T04:55:38;23.50;37.20
64549;DHT22;49838;51.798;10.954;2022-08-21T04:58:06;23.50;37.20
64549;DHT22;49838;51.798;10.954;2022-08-21T05:00:36;23.60;37.30
64549;DHT22;49838;51.798;10.954;2022-08-21T05:03:04;23.60;37.20
64549;DHT22;49838;51.798;10.954;2022-08-21T05:05:33;23.70;37.30
64549;DHT22;49838;51.798;10.954;2022-08-21T05:08:02;23.80;37.30
64549;DHT22;49838;51.798;10.954;2022-08-21T05:10:31;23.90;37.30
64549;DHT22;49838;51.798;10.954;2022-08-21T05:12:58;24.00;37.30
64549;DHT22;49838;51.798;10.954;2022-08-21T05:15:26;24.00;37.30
64549;DHT22;49838;51.798;10.954;2022-08-21T05:17:55;24.00;37.20
64549;DHT22;49838;51.798;10.954;2022-08-21T05:20:23;24.10;37.30
64549;DHT22;49838;51.798;10.954;2022-08-21T05:22:50;24.20;37.40
64549;DHT22;49838;51.798;10.954;2022-08-21T05:25:19;24.20;37.30
64549;DHT22;49838;51.798;10.954;2022-08-21T05:27:46;24.30;37.30
64549;DHT22;49838;51.798;10.954;2022-08-21T05:30:13;24.40;37.30
64549;DHT22;49838;51.798;10.954;2022-08-21T05:32:41;24.40;37.30
64549;DHT22;49838;51.798;10.954;2022-08-21T05:35:08;24.50;37.30
64549;DHT22;49838;51.798;10.954;2022-08-21T05:37:37;24.60;37.30
64549;DHT22;49838;51.798;10.954;2022-08-21T05:40:04;24.90;37.40
64549;DHT22;49838;51.798;10.954;2022-08-21T05:42:34;25.10;37.40
64549;DHT22;49838;51.798;10.954;2022-08-21T05:45:01;25.30;37.30
64549;DHT22;49838;51.798;10.954;2022-08-21T05:47:29;25.60;37.20
64549;DHT22;49838;51.798;10.954;2022-08-21T05:49:56;26.00;37.20
64549;DHT22;49838;51.798;10.954;2022-08-21T05:52:23;26.40;37.10
64549;DHT22;49838;51.798;10.954;2022-08-21T05:54:50;26.90;37.10
64549;DHT22;49838;51.798;10.954;2022-08-21T05:57:19;27.30;37.00
64549;DHT22;49838;51.798;10.954;2022-08-21T05:59:48;27.70;37.00
64549;DHT22;49838;51.798;10.954;2022-08-21T06:02:16;27.90;37.00
64549;DHT22;49838;51.798;10.954;2022-08-21T06:04:44;28.30;37.10
64549;DHT22;49838;51.798;10.954;2022-08-21T06:07:12;28.60;36.80
64549;DHT22;49838;51.798;10.954;2022-08-21T06:09:39;28.80;36.90
64549;DHT22;49838;51.798;10.954;2022-08-21T06:12:07;29.20;37.10
64549;DHT22;49838;51.798;10.954;2022-08-21T06:14:37;29.60;37.00
64549;DHT22;49838;51.798;10.954;2022-08-21T06:17:08;30.00;37.10
64549;DHT22;49838;51.798;10.954;2022-08-21T06:19:37;30.50;37.00
64549;DHT22;49838;51.798;10.954;2022-08-21T06:22:04;30.90;36.90
64549;DHT22;49838;51.798;10.954;2022-08-21T06:24:32;31.30;37.00
64549;DHT22;49838;51.798;10.954;2022-08-21T06:27:03;31.80;36.90
64549;DHT22;49838;51.798;10.954;2022-08-21T06:29:32;32.40;36.90
64549;DHT22;49838;51.798;10.954;2022-08-21T06:31:59;32.90;36.80
64549;DHT22;49838;51.798;10.954;2022-08-21T06:34:28;33.30;36.60
64549;DHT22;49838;51.798;10.954;2022-08-21T06:36:55;33.70;36.50
64549;DHT22;49838;51.798;10.954;2022-08-21T06:39:22;34.10;36.40
64549;DHT22;49838;51.798;10.954;2022-08-21T06:41:50;34.40;36.10
64549;DHT22;49838;51.798;10.954;2022-08-21T06:44:17;34.60;35.90
64549;DHT22;49838;51.798;10.954;2022-08-21T06:46:45;34.80;35.70
64549;DHT22;49838;51.798;10.954;2022-08-21T06:49:12;35.10;35.50
64549;DHT22;49838;51.798;10.954;2022-08-21T06:51:41;35.40;35.40
64549;DHT22;49838;51.798;10.954;2022-08-21T06:54:08;35.60;35.20
64549;DHT22;49838;51.798;10.954;2022-08-21T06:56:36;36.00;35.00
64549;DHT22;49838;51.798;10.954;2022-08-21T06:59:04;36.20;34.80
64549;DHT22;49838;51.798;10.954;2022-08-21T07:01:31;36.50;34.30
64549;DHT22;49838;51.798;10.954;2022-08-21T07:03:59;36.40;33.90
64549;DHT22;49838;51.798;10.954;2022-08-21T07:06:26;36.30;33.80
64549;DHT22;49838;51.798;10.954;2022-08-21T07:08:54;36.20;33.60
64549;DHT22;49838;51.798;10.954;2022-08-21T07:11:23;36.00;33.30
64549;DHT22;49838;51.798;10.954;2022-08-21T07:13:51;35.80;33.40
64549;DHT22;49838;51.798;10.954;2022-08-21T07:16:20;35.50;32.90
64549;DHT22;49838;51.798;10.954;2022-08-21T07:18:47;35.20;33.10
64549;DHT22;49838;51.798;10.954;2022-08-21T07:21:15;35.00;33.50
64549;DHT22;49838;51.798;10.954;2022-08-21T07:23:44;34.90;34.20
64549;DHT22;49838;51.798;10.954;2022-08-21T07:26:15;34.90;33.40
64549;DHT22;49838;51.798;10.954;2022-08-21T07:28:43;35.20;33.90
64549;DHT22;49838;51.798;10.954;2022-08-21T07:31:11;35.50;33.00
64549;DHT22;49838;51.798;10.954;2022-08-21T07:33:40;35.90;32.60
64549;DHT22;49838;51.798;10.954;2022-08-21T07:36:08;36.20;33.00
64549;DHT22;49838;51.798;10.954;2022-08-21T07:38:35;36.50;33.00
64549;DHT22;49838;51.798;10.954;2022-08-21T07:41:05;36.80;32.80
64549;DHT22;49838;51.798;10.954;2022-08-21T07:43:43;37.10;32.70
64549;DHT22;49838;51.798;10.954;2022-08-21T07:46:11;37.20;32.40
64549;DHT22;49838;51.798;10.954;2022-08-21T07:48:38;37.40;32.90
64549;DHT22;49838;51.798;10.954;2022-08-21T07:51:06;37.60;32.90
64549;DHT22;49838;51.798;10.954;2022-08-21T07:53:36;37.80;32.90
64549;DHT22;49838;51.798;10.954;2022-08-21T07:56:04;38.00;33.30
64549;DHT22;49838;51.798;10.954;2022-08-21T07:58:31;38.20;33.50
64549;DHT22;49838;51.798;10.954;2022-08-21T08:01:00;38.50;33.30
64549;DHT22;49838;51.798;10.954;2022-08-21T08:03:28;38.70;32.80
64549;DHT22;49838;51.798;10.954;2022-08-21T08:05:55;38.90;32.90
64549;DHT22;49838;51.798;10.954;2022-08-21T08:08:22;39.00;32.80
64549;DHT22;49838;51.798;10.954;2022-08-21T08:10:50;39.20;32.90
64549;DHT22;49838;51.798;10.954;2022-08-21T08:13:18;39.40;33.00
64549;DHT22;49838;51.798;10.954;2022-08-21T08:15:45;39.60;31.90
64549;DHT22;49838;51.798;10.954;2022-08-21T08:18:14;39.80;32.00
64549;DHT22;49838;51.798;10.954;2022-08-21T08:20:41;39.90;32.30
64549;DHT22;49838;51.798;10.954;2022-08-21T08:23:09;40.00;31.70
64549;DHT22;49838;51.798;10.954;2022-08-21T08:25:37;40.10;31.60
64549;DHT22;49838;51.798;10.954;2022-08-21T08:28:04;40.30;31.50
64549;DHT22;49838;51.798;10.954;2022-08-21T08:30:32;40.50;31.40
64549;DHT22;49838;51.798;10.954;2022-08-21T08:33:00;40.70;30.20
64549;DHT22;49838;51.798;10.954;2022-08-21T08:35:28;41.00;31.20
64549;DHT22;49838;51.798;10.954;2022-08-21T08:37:56;41.10;31.20
64549;DHT22;49838;51.798;10.954;2022-08-21T08:40:25;41.10;30.20
64549;DHT22;49838;51.798;10.954;2022-08-21T08:42:59;40.90;30.10
64549;DHT22;49838;51.798;10.954;2022-08-21T08:45:26;40.50;29.70
64549;DHT22;49838;51.798;10.954;2022-08-21T08:47:58;40.00;29.50
64549;DHT22;49838;51.798;10.954;2022-08-21T08:50:33;39.40;29.40
64549;DHT22;49838;51.798;10.954;2022-08-21T08:53:07;38.80;29.60
64549;DHT22;49838;51.798;10.954;2022-08-21T08:55:40;38.10;29.20
64549;DHT22;49838;51.798;10.954;2022-08-21T08:58:19;37.50;29.60
64549;DHT22;49838;51.798;10.954;2022-08-21T09:00:51;37.00;29.60
64549;DHT22;49838;51.798;10.954;2022-08-21T09:03:20;36.60;30.00
64549;DHT22;49838;51.798;10.954;2022-08-21T09:05:52;36.20;29.70
64549;DHT22;49838;51.798;10.954;2022-08-21T09:08:41;35.80;29.60
64549;DHT22;49838;51.798;10.954;2022-08-21T09:11:27;35.40;29.70
64549;DHT22;49838;51.798;10.954;2022-08-21T09:14:01;35.00;30.00
64549;DHT22;49838;51.798;10.954;2022-08-21T09:16:39;34.70;30.00
64549;DHT22;49838;51.798;10.954;2022-08-21T09:19:14;34.50;30.00
64549;DHT22;49838;51.798;10.954;2022-08-21T09:21:56;34.40;30.00
64549;DHT22;49838;51.798;10.954;2022-08-21T09:24:31;34.60;30.10
64549;DHT22;49838;51.798;10.954;2022-08-21T09:27:08;35.20;30.50
64549;DHT22;49838;51.798;10.954;2022-08-21T09:29:37;35.60;30.20
64549;DHT22;49838;51.798;10.954;2022-08-21T09:32:09;35.70;30.00
64549;DHT22;49838;51.798;10.954;2022-08-21T09:34:42;35.60;30.00
64549;DHT22;49838;51.798;10.954;2022-08-21T09:37:17;35.50;30.00
64549;DHT22;49838;51.798;10.954;2022-08-21T09:39:44;35.30;30.00
64549;DHT22;49838;51.798;10.954;2022-08-21T09:42:11;35.20;30.00
64549;DHT22;49838;51.798;10.954;2022-08-21T09:45:00;35.10;30.00
64549;DHT22;49838;51.798;10.954;2022-08-21T09:47:35;34.80;29.90
64549;DHT22;49838;51.798;10.954;2022-08-21T09:50:10;34.50;29.90
64549;DHT22;49838;51.798;10.954;2022-08-21T09:52:47;34.30;30.10
64549;DHT22;49838;51.798;10.954;2022-08-21T09:55:18;34.30;30.20
64549;DHT22;49838;51.798;10.954;2022-08-21T09:58:05;34.90;30.80
64549;DHT22;49838;51.798;10.954;2022-08-21T10:00:34;35.50;30.90
64549;DHT22;49838;51.798;10.954;2022-08-21T10:03:09;35.80;30.60
64549;DHT22;49838;51.798;10.954;2022-08-21T10:05:38;36.40;30.50
64549;DHT22;49838;51.798;10.954;2022-08-21T10:08:17;36.90;31.00
64549;DHT22;49838;51.798;10.954;2022-08-21T10:10:44;37.00;30.20
64549;DHT22;49838;51.798;10.954;2022-08-21T10:13:13;36.80;29.80
64549;DHT22;49838;51.798;10.954;2022-08-21T10:15:48;36.60;30.00
64549;DHT22;49838;51.798;10.954;2022-08-21T10:18:24;36.30;29.90
64549;DHT22;49838;51.798;10.954;2022-08-21T10:21:02;35.90;29.90
64549;DHT22;49838;51.798;10.954;2022-08-21T10:23:41;35.50;29.80
64549;DHT22;49838;51.798;10.954;2022-08-21T10:26:20;35.20;29.90
64549;DHT22;49838;51.798;10.954;2022-08-21T10:29:12;34.90;30.10
64549;DHT22;49838;51.798;10.954;2022-08-21T10:31:50;34.60;30.00
64549;DHT22;49838;51.798;10.954;2022-08-21T10:34:32;34.30;30.00
64549;DHT22;49838;51.798;10.954;2022-08-21T10:37:15;34.10;29.90
64549;DHT22;49838;51.798;10.954;2022-08-21T10:39:55;33.70;30.00
64549;DHT22;49838;51.798;10.954;2022-08-21T10:42:35;33.50;30.00
64549;DHT22;49838;51.798;10.954;2022-08-21T10:45:10;33.40;29.80
64549;DHT22;49838;51.798;10.954;2022-08-21T10:48:01;33.20;29.90
64549;DHT22;49838;51.798;10.954;2022-08-21T10:50:33;33.00;30.00
64549;DHT22;49838;51.798;10.954;2022-08-21T10:53:13;32.90;30.00
64549;DHT22;49838;51.798;10.954;2022-08-21T10:56:02;32.80;30.00
64549;DHT22;49838;51.798;10.954;2022-08-21T10:58:40;32.80;30.00
64549;DHT22;49838;51.798;10.954;2022-08-21T11:01:13;32.80;30.00
64549;DHT22;49838;51.798;10.954;2022-08-21T11:03:46;32.70;30.00
64549;DHT22;49838;51.798;10.954;2022-08-21T11:06:20;32.70;30.00
64549;DHT22;49838;51.798;10.954;2022-08-21T11:08:51;32.80;30.00
64549;DHT22;49838;51.798;10.954;2022-08-21T11:11:25;32.80;30.10
64549;DHT22;49838;51.798;10.954;2022-08-21T11:13:58;33.00;30.40
64549;DHT22;49838;51.798;10.954;2022-08-21T11:16:31;33.20;30.30
64549;DHT22;49838;51.798;10.954;2022-08-21T11:19:05;33.40;30.10
64549;DHT22;49838;51.798;10.954;2022-08-21T11:21:37;33.50;30.20
64549;DHT22;49838;51.798;10.954;2022-08-21T11:24:17;33.70;30.20
64549;DHT22;49838;51.798;10.954;2022-08-21T11:26:54;33.70;30.10
64549;DHT22;49838;51.798;10.954;2022-08-21T11:29:27;33.80;30.10
64549;DHT22;49838;51.798;10.954;2022-08-21T11:31:59;33.90;30.10
64549;DHT22;49838;51.798;10.954;2022-08-21T11:34:38;34.00;30.20
64549;DHT22;49838;51.798;10.954;2022-08-21T11:37:16;34.20;30.10
64549;DHT22;49838;51.798;10.954;2022-08-21T11:39:52;34.40;30.30
64549;DHT22;49838;51.798;10.954;2022-08-21T11:42:29;34.50;30.10
64549;DHT22;49838;51.798;10.954;2022-08-21T11:45:09;34.60;30.10
64549;DHT22;49838;51.798;10.954;2022-08-21T11:47:51;34.70;30.10
64549;DHT22;49838;51.798;10.954;2022-08-21T11:50:26;34.70;30.00
64549;DHT22;49838;51.798;10.954;2022-08-21T11:52:56;34.60;30.10
64549;DHT22;49838;51.798;10.954;2022-08-21T11:55:28;34.50;30.20
64549;DHT22;49838;51.798;10.954;2022-08-21T11:58:01;34.50;30.30
64549;DHT22;49838;51.798;10.954;2022-08-21T12:00:36;34.50;30.10
64549;DHT22;49838;51.798;10.954;2022-08-21T12:03:08;34.50;30.10
64549;DHT22;49838;51.798;10.954;2022-08-21T12:05:39;34.40;30.10
64549;DHT22;49838;51.798;10.954;2022-08-21T12:08:11;34.30;30.10
64549;DHT22;49838;51.798;10.954;2022-08-21T12:10:40;34.50;30.00
64549;DHT22;49838;51.798;10.954;2022-08-21T12:13:24;34.50;30.00
64549;DHT22;49838;51.798;10.954;2022-08-21T12:15:53;34.60;29.90
64549;DHT22;49838;51.798;10.954;2022-08-21T12:18:32;34.60;29.50
64549;DHT22;49838;51.798;10.954;2022-08-21T12:21:02;34.60;29.50
64549;DHT22;49838;51.798;10.954;2022-08-21T12:23:32;34.60;29.70
64549;DHT22;49838;51.798;10.954;2022-08-21T12:26:13;34.70;29.70
64549;DHT22;49838;51.798;10.954;2022-08-21T12:29:06;34.70;29.50
64549;DHT22;49838;51.798;10.954;2022-08-21T12:31:47;34.60;29.50
64549;DHT22;49838;51.798;10.954;2022-08-21T12:34:17;34.60;29.60
64549;DHT22;49838;51.798;10.954;2022-08-21T12:36:47;34.60;29.70
64549;DHT22;49838;51.798;10.954;2022-08-21T12:39:21;34.60;29.70
64549;DHT22;49838;51.798;10.954;2022-08-21T12:41:53;34.60;29.80
64549;DHT22;49838;51.798;10.954;2022-08-21T12:44:26;34.60;29.70
64549;DHT22;49838;51.798;10.954;2022-08-21T12:47:02;34.50;29.70
64549;DHT22;49838;51.798;10.954;2022-08-21T12:49:33;34.50;29.80
64549;DHT22;49838;51.798;10.954;2022-08-21T12:52:06;34.40;29.70
64549;DHT22;49838;51.798;10.954;2022-08-21T12:54:39;34.30;29.80
64549;DHT22;49838;51.798;10.954;2022-08-21T12:57:17;34.20;29.50
64549;DHT22;49838;51.798;10.954;2022-08-21T12:59:51;34.20;29.50
64549;DHT22;49838;51.798;10.954;2022-08-21T13:02:20;34.10;29.60
64549;DHT22;49838;51.798;10.954;2022-08-21T13:04:50;34.20;29.70
64549;DHT22;49838;51.798;10.954;2022-08-21T13:07:22;34.30;29.60
64549;DHT22;49838;51.798;10.954;2022-08-21T13:09:54;34.40;29.60
64549;DHT22;49838;51.798;10.954;2022-08-21T13:12:24;34.50;29.60
64549;DHT22;49838;51.798;10.954;2022-08-21T13:14:55;34.60;29.60
64549;DHT22;49838;51.798;10.954;2022-08-21T13:17:25;34.70;29.60
64549;DHT22;49838;51.798;10.954;2022-08-21T13:19:54;34.80;29.60
64549;DHT22;49838;51.798;10.954;2022-08-21T13:22:24;34.90;29.60
64549;DHT22;49838;51.798;10.954;2022-08-21T13:24:53;35.00;29.50
64549;DHT22;49838;51.798;10.954;2022-08-21T13:27:23;35.00;29.50
64549;DHT22;49838;51.798;10.954;2022-08-21T13:32:40;35.20;29.50
64549;DHT22;49838;51.798;10.954;2022-08-21T13:35:13;35.20;30.00
64549;DHT22;49838;51.798;10.954;2022-08-21T13:37:43;35.20;29.30
64549;DHT22;49838;51.798;10.954;2022-08-21T13:40:14;35.20;29.30
64549;DHT22;49838;51.798;10.954;2022-08-21T13:42:45;35.30;29.30
64549;DHT22;49838;51.798;10.954;2022-08-21T13:45:16;35.30;29.10
64549;DHT22;49838;51.798;10.954;2022-08-21T13:47:48;35.20;29.10
64549;DHT22;49838;51.798;10.954;2022-08-21T13:50:16;35.20;29.10
64549;DHT22;49838;51.798;10.954;2022-08-21T13:52:53;35.20;29.20
64549;DHT22;49838;51.798;10.954;2022-08-21T13:55:25;35.10;29.20
64549;DHT22;49838;51.798;10.954;2022-08-21T13:58:01;35.20;29.00
64549;DHT22;49838;51.798;10.954;2022-08-21T14:00:32;35.10;29.20
64549;DHT22;49838;51.798;10.954;2022-08-21T14:03:03;35.10;29.20
64549;DHT22;49838;51.798;10.954;2022-08-21T14:05:34;35.10;29.10
64549;DHT22;49838;51.798;10.954;2022-08-21T14:08:05;35.10;29.00
64549;DHT22;49838;51.798;10.954;2022-08-21T14:10:36;35.00;28.90
64549;DHT22;49838;51.798;10.954;2022-08-21T14:13:14;35.00;29.00
64549;DHT22;49838;51.798;10.954;2022-08-21T14:15:56;34.90;29.00
64549;DHT22;49838;51.798;10.954;2022-08-21T14:18:28;34.90;29.20
64549;DHT22;49838;51.798;10.954;2022-08-21T14:21:05;34.90;29.10
64549;DHT22;49838;51.798;10.954;2022-08-21T14:23:35;34.90;29.10
64549;DHT22;49838;51.798;10.954;2022-08-21T14:26:03;34.90;29.00
64549;DHT22;49838;51.798;10.954;2022-08-21T14:28:33;34.90;28.90
64549;DHT22;49838;51.798;10.954;2022-08-21T14:31:13;34.90;29.00
64549;DHT22;49838;51.798;10.954;2022-08-21T14:33:43;35.00;29.00
64549;DHT22;49838;51.798;10.954;2022-08-21T14:36:10;35.10;28.70
64549;DHT22;49838;51.798;10.954;2022-08-21T14:38:39;35.00;28.80
64549;DHT22;49838;51.798;10.954;2022-08-21T14:41:09;35.10;28.90
64549;DHT22;49838;51.798;10.954;2022-08-21T14:43:42;35.20;28.70
64549;DHT22;49838;51.798;10.954;2022-08-21T14:46:13;35.20;28.60
64549;DHT22;49838;51.798;10.954;2022-08-21T14:48:45;35.20;28.50
64549;DHT22;49838;51.798;10.954;2022-08-21T14:51:13;35.30;28.50
64549;DHT22;49838;51.798;10.954;2022-08-21T14:53:40;35.40;28.60
64549;DHT22;49838;51.798;10.954;2022-08-21T14:56:08;35.40;28.50
64549;DHT22;49838;51.798;10.954;2022-08-21T14:58:38;35.50;28.50
64549;DHT22;49838;51.798;10.954;2022-08-21T15:01:07;35.40;28.40
64549;DHT22;49838;51.798;10.954;2022-08-21T15:03:37;35.40;28.40
64549;DHT22;49838;51.798;10.954;2022-08-21T15:06:05;35.40;28.30
64549;DHT22;49838;51.798;10.954;2022-08-21T15:08:33;35.40;28.40
64549;DHT22;49838;51.798;10.954;2022-08-21T15:11:01;35.30;28.40
64549;DHT22;49838;51.798;10.954;2022-08-21T15:13:30;35.20;28.30
64549;DHT22;49838;51.798;10.954;2022-08-21T15:15:57;35.20;28.40
64549;DHT22;49838;51.798;10.954;2022-08-21T15:18:26;35.10;28.40
64549;DHT22;49838;51.798;10.954;2022-08-21T15:20:56;35.00;28.30
64549;DHT22;49838;51.798;10.954;2022-08-21T15:23:24;35.10;28.40
64549;DHT22;49838;51.798;10.954;2022-08-21T15:25:51;35.10;28.50
64549;DHT22;49838;51.798;10.954;2022-08-21T15:28:19;35.00;28.50
64549;DHT22;49838;51.798;10.954;2022-08-21T15:30:49;35.00;28.40
64549;DHT22;49838;51.798;10.954;2022-08-21T15:33:17;34.90;28.30
64549;DHT22;49838;51.798;10.954;2022-08-21T15:35:45;34.80;28.30
64549;DHT22;49838;51.798;10.954;2022-08-21T15:38:14;34.70;28.20